Latest Weather Observations for Jandakot

IDW60801

Issued at 11:05 pm WST Monday 21 April 2014 (issued every 30 minutes, with the page automatically refreshed every 10 minutes)

About weather observations | Map of weather stations | Latest weather observations for WA | Other Formats
Station Details ID: 009172 Name: JANDAKOT AERO Lat: -32.10 Lon: 115.88 Height: 30.0 m
Data from the previous 72 hours. | See also: Recent months at Jandakot
Date/Time
WST
Temp
°C
App
Temp
°C
Dew
Point
Rel
Hum
%
Delta-T
°C
Wind Press
QNH
hPa
Press
MSL
hPa
Rain
since 9 am
mm
Dir
 
Spd
km/h
Gust
km/h
Spd
kts
Gust
kts
21/11:00pm 10.7 9.3 8.7 87 1.0 S 6 7 3 4 1020.9 - 0.0
21/10:30pm 11.4 9.6 7.9 79 1.7 S 7 7 4 4 1021.0 - 0.0
21/10:00pm 13.4 11.2 9.5 77 2.0 SSW 11 13 6 7 1021.2 - 0.0
21/09:30pm 14.1 12.3 9.4 73 2.4 S 9 11 5 6 1021.3 - 0.0
21/09:00pm 14.8 12.6 9.5 70 2.7 S 11 13 6 7 1021.3 1021.3 0.0
21/08:30pm 15.2 13.4 9.6 69 2.9 S 9 13 5 7 1021.3 - 0.0
21/08:00pm 15.5 13.7 9.5 67 3.1 S 9 11 5 6 1021.1 - 0.0
21/07:30pm 16.2 14.4 9.4 64 3.5 S 9 13 5 7 1020.8 - 0.0
21/07:00pm 17.3 14.7 9.2 59 4.2 S 13 17 7 9 1020.4 - 0.0
21/06:30pm 17.8 14.7 8.9 56 4.6 SSW 15 20 8 11 1019.9 - 0.0
21/06:00pm 18.7 14.6 7.7 48 5.6 SSW 19 26 10 14 1019.5 1019.5 0.0
21/05:30pm 19.7 15.3 7.3 44 6.3 SW 20 30 11 16 1019.1 - 0.0
21/05:00pm 20.5 16.3 7.4 42 6.7 SW 19 26 10 14 1018.9 - 0.0
21/04:30pm 21.0 16.6 7.6 42 6.9 SW 20 28 11 15 1018.9 - 0.0
21/04:00pm 21.1 17.2 9.5 47 6.2 SW 20 28 11 15 1018.8 - 0.0
21/03:30pm 21.7 17.1 8.1 41 7.1 WSW 22 35 12 19 1018.8 - 0.0
21/03:00pm 22.3 19.2 7.4 38 7.7 SW 13 33 7 18 1018.7 1018.7 0.0
21/02:30pm 22.0 18.8 5.0 33 8.4 SW 11 20 6 11 1018.7 - 0.0
21/02:00pm 21.9 17.9 5.1 33 8.3 S 15 22 8 12 1018.7 - 0.0
21/01:30pm 21.6 18.0 4.9 33 8.2 S 13 20 7 11 1018.8 - 0.0
21/01:00pm 21.5 17.9 4.8 33 8.2 SE 13 22 7 12 1018.9 - 0.0
21/12:30pm 21.2 17.7 5.5 36 7.8 S 13 22 7 12 1019.3 - 0.0
21/12:00pm 20.6 16.4 5.9 38 7.3 S 17 26 9 14 1019.5 1019.5 0.0
21/11:30am 20.3 16.1 5.5 38 7.3 SSE 17 28 9 15 1019.9 - 0.0
21/11:00am 20.0 15.6 5.0 37 7.3 S 17 28 9 15 1020.1 - 0.0
21/10:30am 19.4 15.8 6.9 44 6.3 SE 15 20 8 11 1020.2 - 0.0
21/10:00am 19.3 15.8 7.0 44 6.2 SE 15 22 8 12 1020.2 - 0.0
21/09:30am 18.1 14.0 7.9 51 5.2 SE 19 24 10 13 1020.2 - 0.0
21/09:00am 17.3 14.3 9.4 59 4.1 SE 15 20 8 11 1020.3 1020.3 0.0
21/08:30am 15.2 12.8 10.0 71 2.7 SE 13 17 7 9 1020.0 - 0.0
21/08:00am 12.5 11.4 10.6 88 1.0 ESE 7 11 4 6 1019.8 - 0.0
21/07:30am 10.4 9.0 9.4 93 0.5 SE 7 9 4 5 1019.5 - 0.0
21/07:00am 8.7 6.9 7.9 95 0.4 SSE 7 9 4 5 1019.2 - 0.0
21/06:30am 8.2 6.2 7.1 93 0.5 SSE 7 9 4 5 1019.1 - 0.0
21/06:00am 10.2 8.7 9.2 93 0.5 S 7 9 4 5 1018.9 1018.9 0.0
21/05:30am 10.6 8.4 9.4 92 0.6 SSW 11 13 6 7 1018.7 - 0.0
21/05:00am 10.8 9.0 9.6 92 0.6 S 9 13 5 7 1018.4 - 0.0
21/04:30am 11.2 9.1 9.8 91 0.7 S 11 15 6 8 1018.1 - 0.0
21/04:00am 10.9 9.1 9.3 90 0.8 S 9 11 5 6 1017.6 - 0.0
21/03:30am 11.1 9.3 9.3 89 0.9 SSE 9 11 5 6 1017.2 - 0.0
21/03:00am 12.3 10.7 10.2 87 1.1 SSW 9 11 5 6 1017.1 1017.0 0.0
21/02:30am 12.9 11.0 10.4 85 1.3 SSW 11 15 6 8 1017.1 - 0.0
21/02:00am 12.9 11.4 10.4 85 1.3 S 9 13 5 7 1016.9 - 0.0
21/01:30am 13.0 11.5 10.5 85 1.3 SSW 9 13 5 7 1016.9 - 0.0
21/01:00am 13.6 11.7 10.5 81 1.6 S 11 15 6 8 1016.7 - 0.0
21/12:30am 13.8 12.0 10.8 82 1.6 S 11 15 6 8 1016.5 - 0.0
21/12:00am 14.4 12.6 11.0 80 1.8 S 11 15 6 8 1016.3 1016.2 0.0
 
Date/Time
WST
Temp
°C
App
Temp
°C
Dew
Point
Rel
Hum
%
Delta-T
°C
Wind Press
QNH
hPa
Press
MSL
hPa
Rain
since 9 am
mm
Dir
 
Spd
km/h
Gust
km/h
Spd
kts
Gust
kts
20/11:30pm 14.9 12.7 10.9 77 2.1 S 13 19 7 10 1016.2 - 0.0
20/11:00pm 15.3 12.8 11.2 76 2.2 S 15 19 8 10 1016.2 - 0.0
20/10:30pm 15.7 13.2 11.0 73 2.5 SSW 15 24 8 13 1015.9 - 0.0
20/10:00pm 16.1 14.0 11.1 72 2.7 S 13 17 7 9 1015.8 - 0.0
20/09:30pm 16.6 14.5 11.2 70 2.9 S 13 17 7 9 1015.6 - 0.0
20/09:00pm 17.0 14.9 11.3 69 3.1 S 13 19 7 10 1015.2 1015.1 0.0
20/08:30pm 17.5 15.2 11.6 68 3.2 S 15 19 8 10 1015.0 - 0.0
20/08:00pm 17.8 16.0 12.0 69 3.2 S 13 17 7 9 1014.7 - 0.0
20/07:30pm 18.0 16.2 12.2 69 3.2 S 13 17 7 9 1014.5 - 0.0
20/07:00pm 18.4 16.5 11.9 66 3.6 SSW 13 20 7 11 1014.4 - 0.0
20/06:30pm 19.1 17.1 11.4 61 4.2 SSW 13 19 7 10 1014.1 - 0.0
20/06:00pm 19.6 16.5 11.6 60 4.4 SSW 19 28 10 15 1013.8 1013.7 0.0
20/05:30pm 20.0 16.6 11.3 57 4.8 SSW 20 28 11 15 1013.7 - 0.0
20/05:00pm 20.5 15.9 11.2 55 5.1 SSW 26 33 14 18 1013.4 - 0.0
20/04:30pm 21.0 16.8 11.0 52 5.5 SW 24 32 13 17 1013.3 - 0.0
20/04:00pm 21.4 16.9 11.3 52 5.6 SW 26 33 14 18 1013.1 - 0.0
20/03:30pm 22.4 18.0 11.7 50 6.0 SW 26 32 14 17 1012.9 - 0.0
20/03:00pm 22.3 18.7 12.0 52 5.8 SW 22 32 12 17 1012.6 1012.5 0.0
20/02:30pm 23.9 20.3 11.9 47 6.8 SW 22 30 12 16 1012.6 - 0.0
20/02:00pm 22.9 19.9 12.6 52 5.9 SW 20 28 11 15 1012.4 - 0.0
20/01:30pm 22.3 18.3 12.9 55 5.4 WSW 26 35 14 19 1012.6 - 0.0
20/01:00pm 23.8 21.3 12.2 48 6.6 SW 17 32 9 17 1012.8 - 0.0
20/12:30pm 23.4 21.5 11.9 48 6.5 SW 13 20 7 11 1013.3 - 0.0
20/12:00pm 22.7 21.6 12.1 51 6.0 S 9 17 5 9 1013.8 1013.7 0.0
20/11:30am 22.4 20.9 11.9 51 5.9 SSW 11 20 6 11 1014.4 - 0.0
20/11:00am 22.1 21.1 12.2 53 5.6 S 9 17 5 9 1014.8 - 0.0
20/10:30am 21.7 21.7 12.3 55 5.3 S 4 7 2 4 1015.0 - 0.0
20/10:00am 20.6 20.5 12.2 58 4.7 ESE 4 9 2 5 1015.1 - 0.0
20/09:30am 19.3 17.4 11.9 62 4.1 ESE 13 19 7 10 1015.3 - 0.0
20/09:00am 18.2 17.0 11.6 65 3.6 SE 9 13 5 7 1015.5 1015.4 0.0
20/08:30am 16.7 15.8 11.5 71 2.8 S 7 11 4 6 1015.6 - 0.0
20/08:00am 14.7 14.2 10.9 78 2.0 S 4 7 2 4 1015.5 - 0.0
20/07:30am 13.4 12.4 10.9 85 1.3 S 7 9 4 5 1015.2 - 0.0
20/07:00am 11.7 10.3 9.5 86 1.1 S 7 9 4 5 1015.0 - 0.0
20/06:30am 11.2 9.3 9.2 87 1.0 S 9 11 5 6 1014.8 - 0.0
20/06:00am 10.9 9.0 9.1 89 0.9 S 9 11 5 6 1015.0 1014.9 0.0
20/05:30am 10.8 9.3 9.2 90 0.8 S 7 9 4 5 1014.8 - 0.0
20/05:00am 10.9 9.0 9.1 89 0.9 S 9 11 5 6 1015.0 - 0.0
20/04:30am 10.6 9.0 8.6 87 1.0 S 7 7 4 4 1014.8 - 0.0
20/04:00am 12.5 11.2 10.0 85 1.3 SSE 7 9 4 5 1014.6 - 0.0
20/03:30am 11.5 10.0 9.1 85 1.2 SSE 7 9 4 5 1014.4 - 0.0
20/03:00am 13.0 11.8 10.3 84 1.4 S 7 9 4 5 1014.6 1014.5 0.0
20/02:30am 13.3 12.8 10.8 85 1.3 S 4 7 2 4 1014.5 - 0.0
20/02:00am 12.6 12.7 10.3 86 1.2 CALM 0 0 0 0 1014.4 - 0.0
20/01:30am 13.6 14.0 11.1 85 1.3 CALM 0 0 0 0 1014.6 - 0.0
20/01:00am 13.8 12.9 11.2 84 1.4 SSE 7 9 4 5 1014.6 - 0.0
20/12:30am 14.9 13.6 11.3 79 1.9 S 9 11 5 6 1014.7 - 0.0
20/12:00am 15.5 13.5 11.6 77 2.1 S 13 17 7 9 1014.7 1014.6 0.0
 
Date/Time
WST
Temp
°C
App
Temp
°C
Dew
Point
Rel
Hum
%
Delta-T
°C
Wind Press
QNH
hPa
Press
MSL
hPa
Rain
since 9 am
mm
Dir
 
Spd
km/h
Gust
km/h
Spd
kts
Gust
kts
19/11:30pm 15.8 14.3 11.9 77 2.1 S 11 15 6 8 1014.7 - 0.0
19/11:00pm 16.3 14.9 12.3 77 2.2 S 11 17 6 9 1014.9 - 0.0
19/10:30pm 16.4 15.4 12.4 77 2.2 S 9 11 5 6 1015.1 - 0.0
19/10:00pm 17.1 15.4 12.4 74 2.6 S 13 20 7 11 1015.4 - 0.0
19/09:30pm 14.6 13.8 11.8 83 1.5 SSW 7 11 4 6 1015.4 - 0.0
19/09:00pm 15.7 15.4 12.8 83 1.6 SW 6 7 3 4 1015.6 1015.5 0.0
19/08:30pm 17.5 17.4 14.0 80 2.0 SW 7 7 4 4 1015.7 - 0.0
19/08:00pm 17.9 17.4 13.9 77 2.3 SW 9 13 5 7 1015.7 - 0.0
19/07:30pm 18.7 17.8 13.6 72 2.9 SW 11 15 6 8 1015.6 - 0.0
19/07:00pm 19.5 17.8 13.7 69 3.3 SSW 15 19 8 10 1015.4 - 0.0
19/06:30pm 19.7 17.7 14.0 69 3.3 SW 17 24 9 13 1015.5 - 0.0
19/06:00pm 20.2 17.8 13.8 66 3.7 SW 19 30 10 16 1015.1 1015.0 0.0
19/05:30pm 20.8 18.4 13.7 64 4.1 SW 19 26 10 14 1014.9 - 0.0
19/05:00pm 21.8 19.0 13.1 57 5.0 SW 20 28 11 15 1014.6 - 0.0
19/04:30pm 22.5 18.9 13.1 55 5.4 SW 24 32 13 17 1014.6 - 0.0
19/04:00pm 23.5 20.7 13.1 52 6.0 SW 20 26 11 14 1014.5 - 0.0
19/03:30pm 23.9 20.9 13.6 52 6.0 SW 22 33 12 18 1014.5 - 0.0
19/03:00pm 23.9 20.9 13.6 52 6.0 WSW 22 32 12 17 1014.6 1014.5 0.0
19/02:30pm 24.5 21.5 13.6 50 6.4 SW 22 28 12 15 1014.6 - 0.0
19/02:00pm 24.9 21.9 12.1 44 7.3 WSW 19 26 10 14 1014.6 - 0.0
19/01:30pm 24.5 21.2 11.6 44 7.3 SW 20 33 11 18 1014.8 - 0.0
19/01:00pm 24.8 21.9 10.9 41 7.8 SW 17 24 9 13 1015.3 - 0.0
19/12:30pm 24.3 20.9 10.4 41 7.7 SW 19 26 10 14 1015.8 - 0.0
19/12:00pm 24.0 20.4 10.4 42 7.5 SW 20 32 11 17 1016.3 1016.2 0.0
19/11:30am 23.2 19.6 10.7 45 6.9 SSW 20 28 11 15 1016.9 - 0.0
19/11:00am 22.6 19.2 11.3 48 6.3 SSW 20 28 11 15 1017.3 - 0.0
19/10:30am 21.1 18.1 11.8 55 5.2 SSW 19 26 10 14 1017.7 - 0.0
19/10:00am 20.4 17.5 12.2 59 4.6 SSW 19 24 10 13 1018.1 - 0.0
19/09:30am 19.0 16.1 12.4 65 3.7 SSW 19 24 10 13 1018.5 - 0.0
19/09:00am 17.7 15.2 12.3 70 3.0 SSW 17 22 9 12 1018.7 1018.7 0.0
19/08:30am 15.7 14.4 12.4 81 1.8 S 11 17 6 9 1018.7 - 0.0
19/08:00am 13.9 12.9 12.4 91 0.8 S 9 13 5 7 1018.6 - 0.0
19/07:30am 12.6 12.1 12.0 96 0.3 SSE 6 6 3 3 1018.3 - 0.0
19/07:00am 12.0 10.7 11.2 95 0.4 S 9 11 5 6 1018.4 - 0.0
19/06:30am 12.1 10.8 11.3 95 0.4 S 9 13 5 7 1018.2 - 0.0
19/06:00am 12.2 10.2 11.4 95 0.4 S 13 15 7 8 1018.2 1018.2 0.0
19/05:30am 11.5 10.4 10.5 94 0.5 S 7 9 4 5 1018.2 - 0.0
19/05:00am 12.0 11.4 11.6 97 0.2 SE 6 7 3 4 1018.2 - 0.0
19/04:30am 13.0 11.5 11.9 93 0.6 S 11 13 6 7 1018.1 - 0.0
19/04:00am 13.1 11.6 11.8 92 0.7 SSW 11 13 6 7 1018.2 - 0.0
19/03:30am 13.3 11.8 12.0 92 0.7 S 11 13 6 7 1018.1 - 0.0
19/03:00am 13.6 12.2 12.1 91 0.8 S 11 15 6 8 1018.0 1018.0 0.0
19/02:30am 13.6 12.5 11.9 89 0.9 S 9 11 5 6 1018.2 - 0.0
19/02:00am 14.2 13.6 12.2 88 1.1 S 7 9 4 5 1018.3 - 0.0
19/01:30am 15.0 14.1 12.6 85 1.3 SSW 9 11 5 6 1018.2 - 0.0
19/01:00am 15.3 14.5 12.9 85 1.3 SSW 9 11 5 6 1018.3 - 0.0
19/12:30am 16.3 15.2 13.1 81 1.8 S 11 17 6 9 1018.2 - 0.0
19/12:00am 16.9 15.2 13.5 80 1.9 S 15 20 8 11 1018.2 1018.2 0.0
 
Date/Time
WST
Temp
°C
App
Temp
°C
Dew
Point
Rel
Hum
%
Delta-T
°C
Wind Press
QNH
hPa
Press
MSL
hPa
Rain
since 9 am
mm
Dir
 
Spd
km/h
Gust
km/h
Spd
kts
Gust
kts
18/11:30pm 17.2 15.6 14.0 81 1.8 S 15 22 8 12 1018.4 - 0.0

Other Formats:

Comma delimited format used in spreadsheet applications
http://www.bom.gov.au/fwo/IDW60801/IDW60801.94609.axf

JavaScript Object Notation format (JSON) in row-major order
http://www.bom.gov.au/fwo/IDW60801/IDW60801.94609.json